SBOSBO MLA / LMML
Speedbird OnlineSpeedbird Online MLA / LMML

Malta International Airport
00:23 10°C

Location Malta, Malta
Latitude: 35.857498
Longitude: 14.4775
Web Airport Website | Wikipedia
Altitude 91 Meter / 300 Feet
Distance 2,079 KM / 1,292 Miles
from London.
Time Zone UTC +1 hours (Europe/Malta)
Codes IATA: MLA
ICAO: LMML
Currency £1 equals EUR 1.13
Runways
RunwayLength (m)Surface
052377Asphalt
133544Asphalt
232377Asphalt
313544Asphalt
Radio
TypeDescriptionFrequency
APPAPP128.15
Distance Radar130.975
GroundGround121.6
Leaving123.625
RunwayRunway138.1
Volmet126.8
WeatherWX127.4
Live ATC
METAR LMML 081445Z 08017KT 9999 RA BKN012 OVC045 10/08 Q1020 NOSIG
TAF TAF LMML 081100Z 0812/0912 10022G32KT 9999 BKN015 OVC030 TEMPO 0812/0912 7000 RA GS BKN010 PROB30 TEMPO 0812/0912 5000 TSRAGS BKN005 BKN011CB PROB40 0815/0912 2000 +RA GR BKN007 BECMG 0902/0905 10028G42KT
Weather As Of 09 Feb 2023 00:23
Description Overcast clouds
Wind 11 km/h from East (80°)
Cloud Cover 100%
Precipitation Rain: none, Snow: none
Sunrise 06:56
Sunset 17:36
Lounges La Valette Club , Main Terminal
Rotations During the last 90 days there were
39 flights from LGW
38 flights to LGW



Support Speedbird Online

© 2017-2023 Speedbird Online